createdAt,value
2023-02-24T07:43:56.612Z,40.00
2023-02-24T07:57:33.398Z,23.57
2023-02-24T08:02:27.156Z,21.13
2023-02-24T08:13:37.579Z,18.60
2023-02-24T08:18:37.779Z,24.33
2023-02-24T08:23:44.960Z,24.07
2023-02-24T08:28:42.437Z,18.43
2023-02-24T08:33:37.772Z,23.47
2023-02-24T08:38:45.084Z,21.90
2023-02-24T08:43:42.308Z,21.57
2023-02-24T08:48:38.698Z,21.80
2023-02-24T08:53:32.692Z,29.97
2023-02-24T08:58:28.234Z,22.83
2023-02-24T09:03:34.035Z,21.47
2023-02-24T09:08:32.811Z,22.90
2023-02-24T09:13:33.088Z,23.70
2023-02-24T09:18:30.447Z,20.67
2023-02-24T09:23:30.187Z,24.47
2023-02-24T09:28:25.908Z,23.63
2023-02-24T09:33:22.555Z,20.57
2023-02-24T09:38:19.318Z,19.97
2023-02-24T09:43:19.822Z,20.00
2023-02-24T09:48:23.119Z,18.77
2023-02-24T09:53:19.990Z,18.47
2023-02-24T09:58:34.790Z,20.60
2023-02-24T10:03:43.022Z,18.00
2023-02-24T10:08:41.555Z,18.93
2023-02-24T10:13:38.830Z,17.23
2023-02-24T10:18:35.287Z,18.57
2023-02-24T10:23:35.832Z,16.63
2023-02-24T10:28:37.404Z,17.10
2023-02-24T10:33:39.609Z,17.80
2023-02-24T10:38:34.190Z,19.37
2023-02-24T10:43:34.990Z,21.33
2023-02-24T10:48:43.833Z,18.67
2023-02-24T10:53:37.952Z,19.00
2023-02-24T10:58:49.751Z,18.57
2023-02-24T11:04:01.410Z,19.83
2023-02-24T11:09:19.519Z,16.57
2023-02-24T11:14:38.626Z,16.73
2023-02-24T11:19:33.441Z,15.63
2023-02-24T11:24:27.962Z,22.63
2023-02-24T11:29:43.215Z,19.07
2023-02-24T11:34:49.706Z,16.20
2023-02-24T11:39:55.965Z,17.77
2023-02-24T11:44:55.651Z,18.17
2023-02-24T11:49:54.249Z,22.20
2023-02-24T11:54:53.878Z,18.07
2023-02-24T11:59:56.180Z,23.17
2023-02-24T12:04:57.907Z,24.10
2023-02-24T12:10:07.036Z,32.00
2023-02-24T12:15:15.692Z,24.40
2023-02-24T12:20:23.448Z,22.03
2023-02-24T12:25:19.159Z,25.50
2023-02-24T12:30:48.868Z,24.80
2023-02-24T12:35:50.698Z,26.83
2023-02-24T12:40:51.478Z,23.73
2023-02-24T12:45:52.528Z,22.93
2023-02-24T12:50:53.473Z,24.20
2023-02-24T12:55:56.635Z,28.97
2023-02-24T13:01:03.330Z,24.10
2023-02-24T13:06:07.764Z,32.72
2023-02-24T13:11:09.983Z,25.55
2023-02-24T13:16:05.033Z,23.90
2023-02-24T13:21:07.261Z,20.63
2023-02-24T13:26:01.328Z,22.02
2023-02-24T13:31:00.917Z,25.23
2023-02-24T13:36:10.619Z,20.77
2023-02-24T13:41:22.281Z,23.00
2023-02-24T13:46:19.741Z,21.52
2023-02-24T13:51:49.215Z,20.73
2023-02-24T13:56:51.485Z,24.35
2023-02-24T14:01:51.160Z,24.58
2023-02-24T14:06:53.814Z,23.13
2023-02-24T14:11:47.608Z,22.02
2023-02-24T14:16:41.893Z,19.83
2023-02-24T14:21:35.660Z,18.92
2023-02-24T14:26:35.707Z,22.70
2023-02-24T14:31:30.384Z,26.15
2023-02-24T14:36:26.596Z,22.42
2023-02-24T14:41:23.679Z,21.90
2023-02-24T14:46:19.649Z,25.15
2023-02-24T14:51:22.298Z,24.20
2023-02-24T14:56:16.337Z,23.92
2023-02-24T15:01:20.866Z,23.53
2023-02-24T15:06:20.471Z,24.23
2023-02-24T15:11:22.569Z,26.95
2023-02-24T15:16:24.979Z,25.30
2023-02-24T15:21:22.929Z,22.53
2023-02-24T15:26:28.256Z,24.63
2023-02-24T15:31:23.360Z,25.77
2023-02-24T15:36:21.979Z,27.33
2023-02-24T15:41:16.405Z,24.70
2023-02-24T15:46:30.501Z,27.20
2023-02-24T15:51:33.726Z,22.80
2023-02-24T15:56:27.217Z,38.87
2023-02-24T16:01:21.418Z,27.67
2023-02-24T16:06:20.665Z,38.67
2023-02-24T16:11:15.470Z,27.13
2023-02-24T16:16:13.633Z,26.03
2023-02-24T16:21:07.431Z,30.23
2023-02-24T16:26:02.885Z,61.60
2023-02-24T16:30:56.810Z,38.00
2023-02-24T16:35:53.671Z,26.53
2023-02-24T16:40:49.935Z,24.83
2023-02-24T16:45:46.307Z,27.60
2023-02-24T16:50:42.067Z,27.60
2023-02-24T16:55:36.077Z,28.63
2023-02-24T17:00:30.008Z,39.00
2023-02-24T17:05:27.579Z,27.13
2023-02-24T17:10:22.417Z,32.43
2023-02-24T17:15:18.509Z,34.57
2023-02-24T17:20:14.653Z,58.67
2023-02-24T17:25:15.590Z,63.60
2023-02-24T17:30:13.297Z,31.70
2023-02-24T17:35:07.619Z,28.73
2023-02-24T17:40:01.042Z,27.53
